createdAt,value
2022-11-23T00:01:55.620Z,97856.73
2022-11-23T00:05:08.688Z,97854.13
2022-11-23T00:08:20.386Z,97863.71
2022-11-23T00:11:35.005Z,97863.08
2022-11-23T00:14:46.683Z,97857.76
2022-11-23T00:18:00.178Z,97861.84
2022-11-23T00:21:16.526Z,97862.87
2022-11-23T00:24:28.373Z,97860.36
2022-11-23T00:27:40.260Z,97855.04
2022-11-23T00:30:56.383Z,97850.48
2022-11-23T00:34:08.084Z,97863.61
2022-11-23T00:37:19.893Z,97858.94
2022-11-23T00:40:31.854Z,97863.02
2022-11-23T00:43:43.966Z,97861.25
2022-11-23T00:46:55.993Z,97863.86
2022-11-23T00:50:08.066Z,97876.91
2022-11-23T00:53:19.969Z,97875.86
2022-11-23T00:56:31.847Z,97881.08
2022-11-23T00:59:44.235Z,97873.98
2022-11-23T01:02:55.930Z,97883.16
2022-11-23T01:06:14.149Z,97881.47
2022-11-23T01:09:26.953Z,97876.47
2022-11-23T01:12:38.827Z,97862.28
2022-11-23T01:15:57.560Z,97867.39
2022-11-23T01:19:11.575Z,97867.91
2022-11-23T01:22:24.276Z,97858.53
2022-11-23T01:25:35.924Z,97857.40
2022-11-23T01:28:48.186Z,97863.94
2022-11-23T01:31:59.877Z,97859.45
2022-11-23T01:35:13.108Z,97855.19
2022-11-23T01:38:24.794Z,97856.11
2022-11-23T01:41:40.975Z,97860.59
2022-11-23T01:44:54.702Z,97856.03
2022-11-23T01:48:07.005Z,97862.80
2022-11-23T01:51:22.208Z,97857.02
2022-11-23T01:54:39.868Z,97868.93
2022-11-23T01:57:52.331Z,97864.89
2022-11-23T02:01:04.899Z,97866.88
2022-11-23T02:04:22.898Z,97866.22
2022-11-23T02:07:37.589Z,97861.42
2022-11-23T02:10:49.398Z,97862.00
2022-11-23T02:14:02.639Z,97868.80
2022-11-23T02:17:15.055Z,97863.48
2022-11-23T02:20:27.632Z,97847.09
2022-11-23T02:23:46.050Z,97847.64
2022-11-23T02:26:57.977Z,97847.59
2022-11-23T02:30:14.843Z,97849.52
2022-11-23T02:33:26.499Z,97854.81
2022-11-23T02:36:50.069Z,97859.29
2022-11-23T02:40:04.509Z,97862.45
2022-11-23T02:46:48.144Z,97855.88
2022-11-23T02:49:59.944Z,97853.67
2022-11-23T02:53:11.603Z,97849.12
2022-11-23T02:56:23.311Z,97856.27
2022-11-23T02:59:35.697Z,97850.98
2022-11-23T03:02:47.713Z,97850.77
2022-11-23T03:06:00.219Z,97844.60
2022-11-23T03:09:12.844Z,97854.52
2022-11-23T03:12:24.491Z,97846.91
2022-11-23T03:15:36.535Z,97848.78
2022-11-23T03:18:49.353Z,97851.56
2022-11-23T03:22:01.238Z,97855.13
2022-11-23T03:25:15.660Z,97852.70
2022-11-23T03:28:29.128Z,97855.31
2022-11-23T03:31:41.260Z,97852.52
2022-11-23T03:34:54.891Z,97862.64
2022-11-23T03:38:07.152Z,97865.48
2022-11-23T03:41:19.200Z,97859.63
2022-11-23T03:44:32.865Z,97852.36
2022-11-23T03:47:44.634Z,97851.22
2022-11-23T03:50:56.468Z,97847.21
2022-11-23T03:54:08.339Z,97845.66
2022-11-23T03:57:20.099Z,97853.27
2022-11-23T04:00:33.562Z,97848.61
2022-11-23T04:03:45.572Z,97846.08
2022-11-23T04:07:01.839Z,97846.39
2022-11-23T04:10:18.963Z,97849.12
2022-11-23T04:13:38.828Z,97852.02
2022-11-23T04:16:50.600Z,97842.20
2022-11-23T04:20:02.443Z,97843.16
2022-11-23T04:23:14.496Z,97852.25
2022-11-23T04:26:26.739Z,97844.70
2022-11-23T04:29:39.125Z,97844.81
2022-11-23T04:32:53.403Z,97842.20
2022-11-23T04:36:05.772Z,97847.88
2022-11-23T04:39:19.451Z,97844.52
2022-11-23T04:42:35.974Z,97846.18
2022-11-23T04:45:48.893Z,97848.16
2022-11-23T04:49:12.057Z,97857.34
2022-11-23T04:52:25.550Z,97856.61
2022-11-23T04:55:37.603Z,97856.39
2022-11-23T04:58:50.022Z,97849.91
2022-11-23T05:02:01.964Z,97849.52
2022-11-23T05:05:34.297Z,97854.47
2022-11-23T05:08:46.918Z,97855.13
2022-11-23T05:12:01.918Z,97863.35
2022-11-23T05:15:18.379Z,97857.00
2022-11-23T05:18:30.729Z,97863.70
2022-11-23T05:21:43.394Z,97865.75
2022-11-23T05:24:58.295Z,97863.88
2022-11-23T05:28:38.554Z,97874.66
2022-11-23T05:31:26.338Z,97862.16
2022-11-23T05:34:38.559Z,97866.83
2022-11-23T05:37:51.589Z,97865.56
2022-11-23T05:41:03.389Z,97859.61
2022-11-23T05:44:16.199Z,97857.19
2022-11-23T05:47:28.148Z,97858.21
2022-11-23T05:50:40.251Z,97861.16
2022-11-23T05:54:07.678Z,97877.31
2022-11-23T05:57:24.625Z,97881.69
2022-11-23T06:00:36.807Z,97882.35
2022-11-23T06:07:30.615Z,97898.01
2022-11-23T06:10:44.760Z,97899.91
2022-11-23T06:13:56.657Z,97912.14
2022-11-23T06:17:09.007Z,97909.19
2022-11-23T06:20:29.519Z,97912.53
2022-11-23T06:23:43.115Z,97916.91
2022-11-23T06:26:55.324Z,97915.95
2022-11-23T06:30:07.934Z,97919.52
2022-11-23T06:33:20.164Z,97921.45
2022-11-23T06:36:34.304Z,97921.45
2022-11-23T06:39:46.303Z,97887.18
2022-11-23T06:43:04.086Z,97906.53
2022-11-23T06:46:22.861Z,97919.26
2022-11-23T06:49:35.653Z,97912.05
2022-11-23T06:52:49.685Z,97915.23
2022-11-23T06:56:06.000Z,97912.27
2022-11-23T06:59:18.700Z,97911.98
2022-11-23T07:02:30.816Z,97915.52
2022-11-23T07:05:45.780Z,97917.67
2022-11-23T07:09:00.127Z,97915.48
2022-11-23T07:12:15.208Z,97916.97
2022-11-23T07:15:28.181Z,97926.34
2022-11-23T07:18:40.526Z,97916.64
2022-11-23T07:21:54.235Z,97912.45
2022-11-23T07:25:06.574Z,97922.50
2022-11-23T07:28:20.232Z,97916.52
2022-11-23T07:31:32.320Z,97912.77
2022-11-23T07:34:44.444Z,97915.27
2022-11-23T07:37:56.417Z,97920.95
2022-11-23T07:41:08.629Z,97913.41
2022-11-23T07:44:23.116Z,97907.80
2022-11-23T07:47:39.389Z,97909.16
2022-11-23T07:50:51.212Z,97913.24
2022-11-23T07:54:03.639Z,97910.52
2022-11-23T07:57:23.016Z,97913.46
2022-11-23T08:00:35.897Z,97905.70
2022-11-23T08:03:47.840Z,97900.08
2022-11-23T08:07:02.553Z,97903.25
2022-11-23T08:10:15.959Z,97901.38
2022-11-23T08:13:28.547Z,97897.81
2022-11-23T08:16:40.526Z,97897.81
2022-11-23T08:19:52.271Z,97902.84
2022-11-23T08:23:04.898Z,97892.41
2022-11-23T08:26:17.064Z,97883.61
2022-11-23T08:29:29.940Z,97886.45
2022-11-23T08:32:42.383Z,97899.83
2022-11-23T08:35:54.257Z,97908.48
2022-11-23T08:39:07.605Z,97907.67
2022-11-23T08:42:20.017Z,97907.27
2022-11-23T08:45:33.041Z,97907.27
2022-11-23T08:48:44.938Z,97904.76
2022-11-23T08:51:56.901Z,97914.17
2022-11-23T08:55:09.619Z,97913.22
2022-11-23T08:58:21.975Z,97914.50
2022-11-23T09:01:34.220Z,97914.59
2022-11-23T09:04:48.325Z,97922.64
2022-11-23T09:08:00.442Z,97918.88
2022-11-23T09:11:17.354Z,97920.03
2022-11-23T09:14:29.875Z,97912.08
2022-11-23T09:17:42.379Z,97907.51
2022-11-23T09:20:54.436Z,97902.28
2022-11-23T09:24:06.494Z,97904.38
2022-11-23T09:27:18.589Z,97904.16
2022-11-23T09:30:31.007Z,97912.11
2022-11-23T09:33:42.998Z,97889.52
2022-11-23T09:36:54.830Z,97890.66
2022-11-23T09:40:07.887Z,97881.39
2022-11-23T09:43:45.189Z,97872.48
2022-11-23T09:47:07.531Z,97871.34
2022-11-23T09:50:26.521Z,97873.23
2022-11-23T09:53:44.390Z,97871.03
2022-11-23T09:57:01.863Z,97868.20
2022-11-23T10:00:21.664Z,97868.11
2022-11-23T10:03:34.273Z,97861.73
2022-11-23T10:06:49.477Z,97870.09
2022-11-23T10:10:08.650Z,97862.03
2022-11-23T10:13:39.185Z,97849.30
2022-11-23T10:16:57.222Z,97859.00
2022-11-23T10:20:26.267Z,97859.84
2022-11-23T10:23:58.832Z,97853.78
2022-11-23T10:27:18.301Z,97846.98
2022-11-23T10:30:30.597Z,97852.94
2022-11-23T10:33:49.068Z,97847.09
2022-11-23T10:37:03.500Z,97820.85
2022-11-23T10:40:26.120Z,97837.38
2022-11-23T10:43:43.498Z,97840.30
2022-11-23T10:46:55.595Z,97839.45
2022-11-23T10:50:08.150Z,97832.34
2022-11-23T10:53:30.965Z,97836.22
2022-11-23T10:56:46.884Z,97830.88
2022-11-23T11:00:09.598Z,97839.38
2022-11-23T11:03:30.519Z,97831.19
2022-11-23T11:06:42.575Z,97834.23
2022-11-23T11:10:00.162Z,97829.11
2022-11-23T11:13:35.362Z,97829.31
2022-11-23T11:16:53.497Z,97822.20
2022-11-23T11:20:07.213Z,97825.55
2022-11-23T11:23:25.953Z,97820.12
2022-11-23T11:26:39.797Z,97817.39
2022-11-23T11:29:57.994Z,97819.39
2022-11-23T11:33:16.005Z,97820.97
2022-11-23T11:36:30.277Z,97816.35
2022-11-23T11:39:48.741Z,97822.62
2022-11-23T11:43:06.776Z,97816.47
2022-11-23T11:46:31.274Z,97825.73
2022-11-23T11:49:44.670Z,97821.34
2022-11-23T11:53:02.821Z,97828.27
2022-11-23T11:56:22.758Z,97817.27
2022-11-23T11:59:42.298Z,97815.88
2022-11-23T12:03:08.334Z,97811.29
2022-11-23T12:06:26.939Z,97817.56
2022-11-23T12:09:44.984Z,97817.13
2022-11-23T12:12:57.026Z,97829.59
2022-11-23T12:16:15.283Z,97827.17
2022-11-23T12:19:33.858Z,97832.20
2022-11-23T12:22:58.733Z,97827.91
2022-11-23T12:26:24.140Z,97823.41
2022-11-23T12:30:03.941Z,97823.41
2022-11-23T12:33:30.901Z,97801.33
2022-11-23T12:37:14.377Z,97809.41
2022-11-23T12:40:55.057Z,97826.43
2022-11-23T12:44:33.450Z,97820.97
2022-11-23T12:47:56.439Z,97827.88
2022-11-23T12:51:17.662Z,97822.10
2022-11-23T12:54:45.351Z,97809.95
2022-11-23T12:58:06.154Z,97815.19
2022-11-23T13:01:26.473Z,97823.32
2022-11-23T13:04:57.568Z,97823.32
2022-11-23T13:08:53.924Z,97827.33
2022-11-23T13:12:36.535Z,97828.98
2022-11-23T13:16:18.182Z,97826.28
2022-11-23T13:19:55.239Z,97825.64
2022-11-23T13:23:07.788Z,97829.71
2022-11-23T13:26:25.806Z,97833.05
2022-11-23T13:30:03.003Z,97829.52
2022-11-23T13:33:37.295Z,97834.74
2022-11-23T13:37:13.442Z,97832.02
2022-11-23T13:40:28.632Z,97826.89
2022-11-23T13:43:43.082Z,97832.33
2022-11-23T13:47:08.826Z,97837.56
2022-11-23T13:50:27.086Z,97829.52
2022-11-23T13:53:43.062Z,97832.56
2022-11-23T13:57:06.254Z,97817.31
2022-11-23T14:00:55.650Z,97839.25
2022-11-23T14:04:26.509Z,97841.20
2022-11-23T14:07:46.432Z,97828.78
2022-11-23T14:10:59.869Z,97839.66
2022-11-23T14:14:24.627Z,97837.56
2022-11-23T14:18:25.034Z,97837.06
2022-11-23T14:21:43.695Z,97827.09
2022-11-23T14:25:20.373Z,97828.55
2022-11-23T14:28:44.107Z,97832.53
2022-11-23T14:32:08.816Z,97834.30
2022-11-23T14:35:37.345Z,97844.59
2022-11-23T14:39:38.096Z,97837.38
2022-11-23T14:42:56.442Z,97848.57
2022-11-23T14:46:20.365Z,97856.83
2022-11-23T14:49:32.606Z,97855.38
2022-11-23T14:52:44.818Z,97852.64
2022-11-23T14:55:58.069Z,97858.84
2022-11-23T14:59:14.603Z,97859.99
2022-11-23T15:02:29.953Z,97867.49
2022-11-23T15:05:44.036Z,97871.80
2022-11-23T15:09:01.570Z,97873.80
2022-11-23T15:12:31.945Z,97883.19
2022-11-23T15:15:44.207Z,97883.83
2022-11-23T15:18:57.289Z,97878.48
2022-11-23T15:22:10.106Z,97879.41
2022-11-23T15:25:24.685Z,97872.52
2022-11-23T15:28:40.413Z,97869.18
2022-11-23T15:32:14.357Z,97871.48
2022-11-23T15:35:10.815Z,97870.41
2022-11-23T15:38:24.541Z,97872.29
2022-11-23T15:41:38.048Z,97872.95
2022-11-23T15:44:55.269Z,97871.27
2022-11-23T15:48:23.704Z,97873.56
2022-11-23T15:51:39.140Z,97876.80
2022-11-23T15:54:51.972Z,97874.09
2022-11-23T15:58:07.843Z,97880.87
2022-11-23T16:01:21.543Z,97879.94
2022-11-23T16:04:36.664Z,97882.55
2022-11-23T16:08:00.879Z,97882.14
2022-11-23T16:11:26.738Z,97872.52
2022-11-23T16:14:39.452Z,97871.68
2022-11-23T16:17:52.893Z,97874.84
2022-11-23T16:21:08.075Z,97883.11
2022-11-23T16:24:27.845Z,97880.30
2022-11-23T16:27:40.721Z,97886.46
2022-11-23T16:30:53.150Z,97889.08
2022-11-23T16:34:05.298Z,97899.30
2022-11-23T16:37:18.564Z,97909.57
2022-11-23T16:40:30.813Z,97910.19
2022-11-23T16:43:42.615Z,97903.30
2022-11-23T16:46:54.937Z,97900.77
2022-11-23T16:50:07.589Z,97898.27
2022-11-23T16:53:22.345Z,97894.61
2022-11-23T16:56:34.735Z,97900.88
2022-11-23T16:59:46.836Z,97905.80
2022-11-23T17:02:58.784Z,97905.56
2022-11-23T17:06:14.328Z,97906.64
2022-11-23T17:09:26.210Z,97905.07
2022-11-23T17:12:38.317Z,97880.73
2022-11-23T17:15:50.314Z,97911.23
2022-11-23T17:19:02.425Z,97913.45
2022-11-23T17:29:05.964Z,97927.03
2022-11-23T17:32:20.325Z,97941.15
2022-11-23T17:35:36.855Z,97937.84
2022-11-23T17:38:47.507Z,97936.56
2022-11-23T17:42:04.632Z,97925.27
2022-11-23T17:45:15.919Z,97919.00
2022-11-23T17:48:28.459Z,97914.30
2022-11-23T17:51:40.415Z,97919.61
2022-11-23T17:54:52.424Z,97917.11
2022-11-23T17:58:04.461Z,97921.69
2022-11-23T18:01:20.810Z,97913.84
2022-11-23T18:04:32.621Z,97913.11
2022-11-23T18:07:45.500Z,97921.61
2022-11-23T18:10:59.376Z,97926.92
2022-11-23T18:14:11.511Z,97921.69
2022-11-23T18:17:24.116Z,97921.69
2022-11-23T18:20:35.809Z,97920.23
2022-11-23T18:23:49.244Z,97902.45
2022-11-23T18:27:01.233Z,97913.84
2022-11-23T18:30:15.513Z,97920.03
2022-11-23T18:33:27.561Z,97921.80
2022-11-23T18:36:39.703Z,97918.77
2022-11-23T18:39:51.926Z,97914.57
2022-11-23T18:43:03.635Z,97908.61
2022-11-23T18:46:19.412Z,97911.77
2022-11-23T18:49:32.364Z,97907.27
2022-11-23T18:52:44.834Z,97908.11
2022-11-23T18:56:00.382Z,97916.69
2022-11-23T18:59:23.985Z,97924.65
2022-11-23T19:02:25.986Z,97924.42
2022-11-23T19:05:40.214Z,97913.11
2022-11-23T19:08:56.926Z,97911.45
2022-11-23T19:12:09.951Z,97919.30
2022-11-23T19:15:22.173Z,97917.42
2022-11-23T19:18:34.826Z,97917.11
2022-11-23T19:21:47.249Z,97916.91
2022-11-23T19:24:59.432Z,97919.84
2022-11-23T19:28:11.223Z,97931.14
2022-11-23T19:31:25.538Z,97922.56
2022-11-23T19:34:37.862Z,97897.16
2022-11-23T19:37:51.863Z,97928.53
2022-11-23T19:41:03.849Z,97930.30
2022-11-23T19:44:17.049Z,97937.30
2022-11-23T19:47:29.164Z,97929.45
2022-11-23T19:50:41.049Z,97933.34
2022-11-23T19:53:54.907Z,97930.72
2022-11-23T19:57:06.797Z,97933.22
2022-11-23T20:00:21.858Z,97931.64
2022-11-23T20:03:33.865Z,97931.34
2022-11-23T20:06:47.815Z,97937.11
2022-11-23T20:09:59.805Z,97938.99
2022-11-23T20:13:11.851Z,97938.03
2022-11-23T20:16:25.709Z,97942.53
2022-11-23T20:19:37.966Z,97948.91
2022-11-23T20:22:50.185Z,97952.48
2022-11-23T20:26:04.876Z,97942.03
2022-11-23T20:29:17.928Z,97952.06
2022-11-23T20:32:29.975Z,97955.41
2022-11-23T20:35:42.401Z,97950.19
2022-11-23T20:38:55.649Z,97957.91
2022-11-23T20:42:08.266Z,97957.07
2022-11-23T20:45:20.651Z,97968.27
2022-11-23T20:48:32.535Z,97966.38
2022-11-23T20:51:44.635Z,97967.22
2022-11-23T20:54:56.615Z,97971.71
2022-11-23T20:58:09.265Z,97975.68
2022-11-23T21:01:22.645Z,97974.87
2022-11-23T21:04:35.202Z,97975.06
2022-11-23T21:07:47.361Z,97982.60
2022-11-23T21:11:28.244Z,97975.17
2022-11-23T21:14:40.191Z,97970.67
2022-11-23T21:17:52.301Z,97970.05
2022-11-23T21:21:04.260Z,97980.52
2022-11-23T21:24:17.269Z,97982.17
2022-11-23T21:27:29.221Z,97971.09
2022-11-23T21:30:43.060Z,97975.17
2022-11-23T21:33:55.684Z,97983.55
2022-11-23T21:37:07.682Z,97977.98
2022-11-23T21:40:21.001Z,97983.20
2022-11-23T21:43:32.953Z,97984.05
2022-11-23T21:46:46.116Z,97977.67
2022-11-23T21:50:05.789Z,97972.67
2022-11-23T21:53:17.729Z,97982.17
2022-11-23T21:56:30.291Z,97970.05
2022-11-23T21:59:42.275Z,97982.59
2022-11-23T22:02:55.359Z,97984.16
2022-11-23T22:06:08.159Z,97977.98
2022-11-23T22:09:21.162Z,97973.89
2022-11-23T22:12:44.215Z,97981.74
2022-11-23T22:15:56.889Z,97984.47
2022-11-23T22:19:10.675Z,97981.44
2022-11-23T22:22:23.045Z,97974.44
2022-11-23T22:25:35.436Z,97977.98
2022-11-23T22:28:49.763Z,97973.41
2022-11-23T22:32:01.740Z,97968.17
2022-11-23T22:35:15.698Z,97979.67
2022-11-23T22:38:40.687Z,97971.71
2022-11-23T22:41:52.831Z,97977.36
2022-11-23T22:48:48.057Z,97966.70
2022-11-23T22:52:00.202Z,97971.94
2022-11-23T22:55:13.668Z,97969.94
2022-11-23T23:02:06.960Z,97970.98
2022-11-23T23:05:20.463Z,97967.52
2022-11-23T23:08:34.280Z,97968.36
2022-11-23T23:11:53.937Z,97975.59
2022-11-23T23:15:18.870Z,97965.02
2022-11-23T23:18:32.230Z,97973.41
2022-11-23T23:21:44.593Z,97965.64
2022-11-23T23:24:56.499Z,97961.37
2022-11-23T23:28:09.835Z,97962.21
2022-11-23T23:31:23.243Z,97957.28
2022-11-23T23:34:35.396Z,97962.09
2022-11-23T23:41:36.743Z,97973.39
2022-11-23T23:44:50.991Z,97961.67
2022-11-23T23:48:04.876Z,97962.41
2022-11-23T23:51:19.866Z,97960.02
2022-11-23T23:54:32.202Z,97965.24
2022-11-23T23:57:44.738Z,97960.52
